Time;durP1;ratioP1;P1;durP2;ratioP2;P2;SDS_P1;SDS_P2;PMS_P1;PMS_P2;Temp;Humidity;BMP_temperature;BMP_pressure;BME280_temperature;BME280_humidity;BME280_pressure;Samples;Min_cycle;Max_cycle;Signal;HPM_P1;HPM_P2
2022/08/16 00:00:20;;;;;;;1.63;1.52;;;19.30;67.90;;;;;;4951808;28;20122;-64
2022/08/16 00:02:46;;;;;;;1.40;1.30;;;19.30;68.00;;;;;;4948237;28;20074;-63
2022/08/16 00:05:12;;;;;;;2.05;1.30;;;19.30;68.00;;;;;;4956632;28;20035;-63
2022/08/16 00:07:38;;;;;;;1.58;1.40;;;19.30;68.00;;;;;;4954515;28;20085;-63
2022/08/16 00:10:07;;;;;;;1.40;1.30;;;19.30;68.10;;;;;;4954103;28;20059;-63
2022/08/16 00:12:33;;;;;;;2.08;1.10;;;19.30;68.10;;;;;;4951570;28;20388;-64
2022/08/16 00:15:04;;;;;;;1.42;1.33;;;19.30;68.10;;;;;;4949903;28;20097;-64
2022/08/16 00:17:29;;;;;;;1.63;1.52;;;19.30;68.50;;;;;;4953883;28;20085;-63
2022/08/16 00:19:55;;;;;;;1.50;1.40;;;19.30;68.50;;;;;;4955456;28;20050;-64
2022/08/16 00:22:22;;;;;;;1.60;1.35;;;19.30;68.50;;;;;;4950207;28;20991;-63
2022/08/16 00:24:48;;;;;;;1.33;1.23;;;19.30;68.60;;;;;;4949425;28;20046;-64
2022/08/16 00:27:15;;;;;;;1.30;1.20;;;19.30;68.50;;;;;;4921660;28;20142;-64
2022/08/16 00:29:41;;;;;;;1.60;1.50;;;19.40;68.70;;;;;;4956615;28;20126;-64
2022/08/16 00:32:07;;;;;;;1.50;1.40;;;19.40;68.70;;;;;;4948809;28;20594;-64
2022/08/16 00:34:35;;;;;;;1.88;1.50;;;19.30;68.50;;;;;;4951999;28;20122;-63
2022/08/16 00:37:01;;;;;;;1.88;1.40;;;19.30;68.70;;;;;;4948571;28;20512;-62
2022/08/16 00:39:26;;;;;;;1.50;1.40;;;19.40;68.60;;;;;;4949137;28;20046;-63
2022/08/16 00:41:52;;;;;;;1.40;1.30;;;19.30;68.60;;;;;;4949049;28;20519;-63
2022/08/16 00:44:20;;;;;;;1.48;1.30;;;19.30;69.50;;;;;;4947468;28;20117;-64
2022/08/16 00:46:56;;;;;;;1.45;1.35;;;19.30;69.00;;;;;;4950776;28;20486;-63
2022/08/16 00:49:23;;;;;;;1.50;1.40;;;19.30;69.50;;;;;;4950323;28;20046;-64
2022/08/16 00:51:51;;;;;;;1.55;1.40;;;19.20;69.10;;;;;;4951057;28;20654;-65
2022/08/16 00:54:17;;;;;;;1.60;1.50;;;19.30;69.30;;;;;;4947372;28;20051;-63
2022/08/16 00:56:45;;;;;;;1.50;1.40;;;19.30;69.20;;;;;;4952798;28;20035;-64
2022/08/16 00:59:13;;;;;;;1.70;1.60;;;19.20;69.30;;;;;;4950113;28;20047;-64
2022/08/16 01:01:40;;;;;;;1.35;1.27;;;19.20;69.30;;;;;;4945906;28;20095;-63
2022/08/16 01:04:06;;;;;;;1.20;1.20;;;19.20;69.30;;;;;;4951711;28;20130;-64
2022/08/16 01:06:33;;;;;;;1.50;1.40;;;19.20;69.30;;;;;;4950597;28;20411;-65
2022/08/16 01:09:04;;;;;;;1.40;1.30;;;19.20;69.30;;;;;;4947485;28;20607;-64
2022/08/16 01:11:32;;;;;;;1.55;1.45;;;19.20;69.50;;;;;;4947012;28;20074;-63
2022/08/16 01:14:26;;;;;;;1.70;1.60;;;19.20;69.30;;;;;;4946208;28;20117;-63
2022/08/16 01:16:54;;;;;;;1.77;1.38;;;19.30;69.90;;;;;;4950688;28;20823;-64
2022/08/16 01:19:43;;;;;;;1.70;1.50;;;19.30;69.30;;;;;;4951824;28;20039;-64
2022/08/16 01:22:32;;;;;;;1.42;1.20;;;19.30;69.70;;;;;;4947130;28;20530;-65
2022/08/16 01:25:05;;;;;;;1.88;1.40;;;19.30;69.70;;;;;;4949128;28;20098;-64
2022/08/16 01:27:36;;;;;;;1.75;1.40;;;19.30;69.30;;;;;;4948120;28;20095;-63
2022/08/16 01:30:22;;;;;;;1.48;1.23;;;19.30;69.40;;;;;;4945245;28;20110;-63
2022/08/16 01:32:50;;;;;;;2.10;1.35;;;19.30;69.70;;;;;;4949225;28;20031;-63
2022/08/16 01:35:48;;;;;;;1.50;1.40;;;19.20;69.00;;;;;;4950455;28;20038;-63
2022/08/16 01:38:26;;;;;;;3.33;1.70;;;19.20;69.30;;;;;;4939795;28;20041;-64
2022/08/16 01:41:15;;;;;;;1.50;1.40;;;19.20;69.30;;;;;;4949579;28;20038;-64
2022/08/16 01:43:43;;;;;;;1.42;1.33;;;19.20;69.40;;;;;;4946885;28;20027;-63
2022/08/16 01:46:30;;;;;;;3.95;1.30;;;19.20;69.20;;;;;;4948485;28;20031;-64
2022/08/16 01:49:01;;;;;;;1.45;1.30;;;19.30;69.90;;;;;;4949168;28;20093;-64
2022/08/16 01:51:28;;;;;;;1.23;1.08;;;19.20;69.30;;;;;;4952468;28;20499;-63
2022/08/16 01:53:54;;;;;;;1.30;1.20;;;19.20;69.20;;;;;;4951523;28;20045;-63
2022/08/16 01:56:22;;;;;;;2.42;1.45;;;19.20;69.20;;;;;;4950381;28;20039;-63
2022/08/16 01:58:47;;;;;;;1.42;1.33;;;19.20;69.20;;;;;;4948501;28;20046;-63
2022/08/16 02:01:13;;;;;;;1.40;1.30;;;19.20;69.20;;;;;;4946303;28;20341;-63
2022/08/16 02:03:39;;;;;;;1.23;1.13;;;19.20;69.20;;;;;;4949217;28;20403;-63
2022/08/16 02:06:06;;;;;;;1.30;1.20;;;19.20;69.30;;;;;;4950546;28;20049;-63
2022/08/16 02:08:32;;;;;;;1.50;1.35;;;19.20;69.20;;;;;;4954555;28;20039;-63
2022/08/16 02:10:59;;;;;;;1.85;1.40;;;19.30;69.30;;;;;;4949200;28;20394;-63
2022/08/16 02:13:24;;;;;;;1.73;1.33;;;19.20;70.20;;;;;;4953813;28;20086;-64
2022/08/16 02:15:51;;;;;;;2.25;1.38;;;19.20;69.20;;;;;;4953815;28;20138;-64
2022/08/16 02:18:17;;;;;;;1.67;1.58;;;19.20;69.20;;;;;;4953094;28;20035;-64
2022/08/16 02:20:48;;;;;;;1.40;1.30;;;19.20;69.10;;;;;;4951851;28;20035;-64
2022/08/16 02:23:14;;;;;;;1.40;1.30;;;19.20;69.30;;;;;;4950390;28;20043;-63
2022/08/16 02:25:40;;;;;;;1.60;1.50;;;19.20;69.00;;;;;;4953685;28;20055;-63
2022/08/16 02:28:05;;;;;;;2.00;1.17;;;19.20;69.20;;;;;;4952120;28;20027;-63
2022/08/16 02:30:32;;;;;;;1.40;1.30;;;19.20;69.00;;;;;;4949217;28;20042;-63
2022/08/16 02:32:58;;;;;;;1.65;1.52;;;19.10;69.00;;;;;;4953368;28;20039;-63
2022/08/16 02:35:25;;;;;;;1.55;1.45;;;19.10;69.10;;;;;;4955914;28;20544;-63
2022/08/16 02:37:52;;;;;;;2.22;1.70;;;19.10;69.20;;;;;;4947952;28;20038;-63
2022/08/16 02:40:20;;;;;;;1.45;1.35;;;19.10;69.30;;;;;;4949932;28;20168;-64
2022/08/16 02:42:47;;;;;;;1.63;1.52;;;19.10;69.20;;;;;;4947008;28;20353;-63
2022/08/16 02:45:14;;;;;;;1.30;1.20;;;19.10;69.20;;;;;;4946549;28;20110;-63
2022/08/16 02:47:39;;;;;;;1.45;1.35;;;19.10;69.20;;;;;;4950912;28;20301;-63
2022/08/16 02:50:06;;;;;;;2.20;1.45;;;19.00;69.10;;;;;;4950296;28;20047;-63
2022/08/16 02:52:32;;;;;;;2.38;1.35;;;19.00;69.10;;;;;;4948630;28;20503;-64
2022/08/16 02:54:58;;;;;;;1.58;1.48;;;19.00;69.20;;;;;;4951457;28;20121;-64
2022/08/16 02:57:24;;;;;;;1.80;1.63;;;18.90;69.30;;;;;;4950024;28;20109;-63
2022/08/16 02:59:50;;;;;;;1.70;1.60;;;18.90;69.60;;;;;;4952531;28;20039;-63
2022/08/16 03:02:17;;;;;;;2.08;1.70;;;18.90;69.80;;;;;;4947115;28;20039;-63
2022/08/16 03:04:42;;;;;;;2.65;1.85;;;18.90;69.90;;;;;;4950064;28;20027;-63
2022/08/16 03:07:09;;;;;;;1.70;1.60;;;18.80;69.90;;;;;;4949243;28;20443;-63
2022/08/16 03:09:35;;;;;;;2.13;1.80;;;18.90;70.10;;;;;;4952487;28;20622;-63
2022/08/16 03:12:03;;;;;;;1.70;1.60;;;18.80;70.10;;;;;;4941974;28;20047;-63
2022/08/16 03:14:28;;;;;;;1.98;1.88;;;18.80;70.30;;;;;;4948584;28;20099;-63
2022/08/16 03:16:54;;;;;;;2.17;1.65;;;18.80;70.40;;;;;;4952917;28;20558;-63
2022/08/16 03:19:20;;;;;;;2.53;1.83;;;18.80;70.20;;;;;;4950291;28;20974;-63
2022/08/16 03:21:46;;;;;;;1.83;1.70;;;18.80;70.40;;;;;;4951409;28;20102;-64
2022/08/16 03:24:12;;;;;;;2.22;1.67;;;18.80;70.30;;;;;;4947118;28;20035;-63
2022/08/16 03:26:38;;;;;;;2.05;1.40;;;18.70;70.40;;;;;;4949147;28;20041;-63
2022/08/16 03:29:04;;;;;;;2.17;1.98;;;18.70;70.30;;;;;;4946784;28;20499;-63
2022/08/16 03:31:30;;;;;;;2.10;1.90;;;18.70;70.20;;;;;;4951319;28;20043;-64
2022/08/16 03:33:55;;;;;;;2.00;1.90;;;18.70;70.20;;;;;;4952278;28;20097;-64
2022/08/16 03:36:21;;;;;;;2.65;1.70;;;18.60;70.30;;;;;;4950899;28;20455;-64
2022/08/16 03:38:47;;;;;;;1.80;1.70;;;18.60;70.40;;;;;;4954127;28;20074;-63
2022/08/16 03:41:13;;;;;;;2.03;1.88;;;18.50;70.40;;;;;;4952697;28;20080;-63
2022/08/16 03:43:39;;;;;;;2.13;2.03;;;18.50;70.60;;;;;;4949587;28;20037;-63
2022/08/16 03:46:05;;;;;;;2.22;1.75;;;18.40;70.60;;;;;;4949824;28;20517;-63
2022/08/16 03:48:36;;;;;;;2.10;2.00;;;18.40;70.60;;;;;;4952221;28;20035;-64
2022/08/16 03:51:04;;;;;;;2.00;1.90;;;18.40;70.70;;;;;;4935913;28;20035;-64
2022/08/16 03:53:29;;;;;;;1.90;1.80;;;18.30;70.50;;;;;;4948100;28;20522;-63
2022/08/16 03:55:55;;;;;;;1.70;1.60;;;18.30;70.40;;;;;;4955647;28;20039;-63
2022/08/16 03:58:21;;;;;;;2.08;1.92;;;18.30;70.60;;;;;;4952798;28;20225;-63
2022/08/16 04:00:48;;;;;;;2.70;2.50;;;18.30;70.90;;;;;;4951775;28;20038;-63
2022/08/16 04:03:14;;;;;;;2.50;2.33;;;18.20;71.10;;;;;;4949116;28;20023;-62
2022/08/16 04:05:44;;;;;;;2.47;2.22;;;18.20;71.30;;;;;;4952109;28;20031;-64
2022/08/16 04:08:11;;;;;;;2.42;2.22;;;18.20;71.40;;;;;;4951902;28;20042;-63
2022/08/16 04:10:37;;;;;;;2.72;2.53;;;18.20;71.40;;;;;;4949019;28;20031;-63
2022/08/16 04:13:03;;;;;;;2.72;2.33;;;18.20;71.60;;;;;;4950902;28;20046;-63
2022/08/16 04:15:29;;;;;;;2.85;2.58;;;18.10;72.00;;;;;;4951626;28;20042;-63
2022/08/16 04:17:56;;;;;;;2.78;2.58;;;18.10;72.00;;;;;;4952939;28;20050;-63
2022/08/16 04:20:23;;;;;;;3.13;2.83;;;18.10;72.10;;;;;;4952713;28;20134;-63
2022/08/16 04:22:48;;;;;;;2.78;2.58;;;18.10;72.00;;;;;;4952383;28;20038;-63
2022/08/16 04:25:15;;;;;;;2.88;2.47;;;18.10;72.00;;;;;;4952375;28;20040;-64
2022/08/16 04:27:40;;;;;;;3.00;2.70;;;18.10;72.10;;;;;;4951002;28;20600;-61
2022/08/16 04:30:10;;;;;;;3.08;2.75;;;18.00;72.30;;;;;;4948357;28;20567;-64
2022/08/16 04:32:36;;;;;;;2.85;2.65;;;18.00;72.50;;;;;;4949985;28;20030;-62
2022/08/16 04:35:06;;;;;;;3.33;2.75;;;18.00;72.50;;;;;;4948929;28;20154;-63
2022/08/16 04:37:32;;;;;;;3.30;3.00;;;18.00;72.70;;;;;;4949956;28;20122;-63
2022/08/16 04:39:58;;;;;;;3.95;2.95;;;18.00;72.70;;;;;;4953980;28;20041;-63
2022/08/16 04:42:23;;;;;;;3.63;2.70;;;18.00;72.80;;;;;;4947530;28;20081;-63
2022/08/16 04:44:49;;;;;;;2.70;2.50;;;18.00;72.70;;;;;;4950015;28;20428;-63
2022/08/16 04:47:15;;;;;;;4.28;2.63;;;17.90;72.70;;;;;;4950403;28;20407;-65
2022/08/16 04:49:40;;;;;;;3.03;2.83;;;17.90;72.70;;;;;;4949805;28;20058;-63
2022/08/16 04:52:06;;;;;;;3.20;2.78;;;17.90;72.70;;;;;;4949029;28;20418;-63
2022/08/16 04:54:32;;;;;;;2.65;2.45;;;18.00;72.80;;;;;;4948137;28;20545;-63
2022/08/16 04:56:57;;;;;;;3.47;2.70;;;18.00;72.90;;;;;;4953881;28;20038;-64
2022/08/16 04:59:23;;;;;;;3.08;2.40;;;17.90;73.00;;;;;;4947302;28;20048;-63
2022/08/16 05:01:55;;;;;;;2.90;2.70;;;18.00;73.00;;;;;;4949224;28;20050;-62
2022/08/16 05:04:23;;;;;;;2.80;2.60;;;18.00;73.20;;;;;;4948551;28;20118;-63
2022/08/16 05:06:50;;;;;;;2.90;2.70;;;18.00;73.10;;;;;;4949115;28;20050;-62
2022/08/16 05:09:17;;;;;;;3.08;2.88;;;18.10;73.20;;;;;;4952330;28;20058;-64
2022/08/16 05:11:43;;;;;;;3.75;2.80;;;18.20;73.50;;;;;;4945899;28;20034;-65
2022/08/16 05:14:09;;;;;;;4.07;3.10;;;18.20;73.30;;;;;;4951224;28;20039;-64
2022/08/16 05:16:34;;;;;;;4.95;3.30;;;18.30;73.50;;;;;;4951439;28;20133;-65
2022/08/16 05:19:01;;;;;;;4.10;3.20;;;18.30;73.70;;;;;;4950271;28;20414;-64
2022/08/16 05:21:27;;;;;;;3.45;3.03;;;18.30;73.70;;;;;;4950032;28;20043;-64
2022/08/16 05:23:54;;;;;;;3.45;2.95;;;18.30;73.70;;;;;;4951194;28;20039;-64
2022/08/16 05:26:20;;;;;;;3.65;3.35;;;18.40;73.60;;;;;;4947715;28;20031;-63
2022/08/16 05:28:47;;;;;;;4.35;3.30;;;18.40;74.40;;;;;;4951725;28;20039;-64
2022/08/16 05:31:15;;;;;;;3.85;3.45;;;18.50;73.70;;;;;;4950161;28;20106;-65
2022/08/16 05:33:41;;;;;;;4.50;3.40;;;18.50;73.60;;;;;;4950542;28;20525;-64
2022/08/16 05:36:07;;;;;;;4.57;3.33;;;18.50;73.70;;;;;;4948336;28;20499;-65
2022/08/16 05:38:33;;;;;;;4.38;3.47;;;18.50;73.60;;;;;;4950801;28;20035;-65
2022/08/16 05:40:59;;;;;;;3.67;3.38;;;18.60;73.90;;;;;;4951133;28;20034;-64
2022/08/16 05:43:26;;;;;;;3.90;3.50;;;18.60;74.00;;;;;;4949074;28;20043;-64
2022/08/16 05:45:52;;;;;;;6.03;3.30;;;18.70;74.00;;;;;;4948791;28;20075;-64
2022/08/16 05:48:17;;;;;;;4.03;3.28;;;18.70;73.90;;;;;;4949801;28;20498;-64
2022/08/16 05:50:43;;;;;;;5.38;3.42;;;18.80;73.90;;;;;;4949998;28;20043;-64
2022/08/16 05:53:09;;;;;;;3.85;3.45;;;18.80;73.70;;;;;;4949942;28;20039;-63
2022/08/16 05:55:34;;;;;;;4.15;3.67;;;18.90;73.70;;;;;;4949238;28;20471;-65
2022/08/16 05:58:00;;;;;;;7.55;3.75;;;18.90;73.70;;;;;;4935549;28;20114;-65
2022/08/16 06:00:26;;;;;;;6.82;3.63;;;19.00;73.70;;;;;;4949363;28;20054;-64
2022/08/16 06:02:52;;;;;;;8.02;4.40;;;19.00;73.90;;;;;;4948933;28;20054;-65
2022/08/16 06:05:18;;;;;;;10.20;4.07;;;19.00;73.90;;;;;;4946826;28;20049;-64
2022/08/16 06:07:44;;;;;;;3.80;3.50;;;19.00;74.70;;;;;;4948994;28;20091;-65
2022/08/16 06:10:11;;;;;;;6.20;3.65;;;19.00;74.00;;;;;;4947450;28;20162;-64
2022/08/16 06:12:38;;;;;;;5.15;3.58;;;19.00;74.10;;;;;;4944098;28;20042;-64
2022/08/16 06:15:08;;;;;;;6.55;3.28;;;19.00;74.20;;;;;;4953510;28;20495;-63
2022/08/16 06:17:35;;;;;;;5.22;3.30;;;19.00;74.50;;;;;;4948931;28;20075;-65
2022/08/16 06:20:00;;;;;;;3.42;3.13;;;19.00;74.50;;;;;;4950993;28;20098;-64
2022/08/16 06:22:26;;;;;;;3.80;3.38;;;19.00;74.70;;;;;;4946589;28;20046;-64
2022/08/16 06:24:52;;;;;;;4.55;3.38;;;19.00;74.60;;;;;;4957846;28;20050;-64
2022/08/16 06:27:18;;;;;;;4.78;3.20;;;19.10;74.70;;;;;;4958196;28;20402;-64
2022/08/16 06:29:43;;;;;;;7.40;3.30;;;19.10;74.70;;;;;;4957408;28;20039;-64
2022/08/16 06:32:10;;;;;;;5.65;3.40;;;19.10;74.80;;;;;;4957702;28;20035;-65
2022/08/16 06:34:36;;;;;;;6.65;3.20;;;19.20;74.90;;;;;;4955377;28;20043;-65
2022/08/16 06:37:02;;;;;;;3.33;2.95;;;19.20;75.00;;;;;;4956155;28;20031;-64
2022/08/16 06:39:28;;;;;;;5.97;2.45;;;19.30;74.80;;;;;;4957221;28;20038;-64
2022/08/16 06:41:54;;;;;;;3.42;2.83;;;19.30;74.60;;;;;;4953393;28;20087;-64
2022/08/16 06:44:20;;;;;;;3.63;2.67;;;19.40;74.60;;;;;;4956095;28;20515;-65
2022/08/16 06:46:45;;;;;;;2.72;2.40;;;19.50;74.50;;;;;;4939419;28;20105;-65
2022/08/16 06:49:11;;;;;;;3.83;3.20;;;19.60;74.30;;;;;;4948316;28;20045;-65
2022/08/16 06:51:39;;;;;;;2.88;2.67;;;19.60;74.60;;;;;;4936562;28;20174;-63
2022/08/16 06:54:05;;;;;;;3.63;3.30;;;19.70;74.50;;;;;;4949043;28;20042;-64
2022/08/16 06:56:31;;;;;;;4.18;2.92;;;19.70;74.30;;;;;;4945394;28;20035;-64
2022/08/16 06:58:56;;;;;;;3.13;2.70;;;19.80;74.20;;;;;;4950021;28;20035;-64
2022/08/16 07:01:22;;;;;;;3.15;2.95;;;19.90;74.20;;;;;;4940390;28;20408;-63
2022/08/16 07:03:48;;;;;;;3.72;2.50;;;19.90;73.80;;;;;;4941737;28;20039;-64
2022/08/16 07:06:14;;;;;;;3.35;2.45;;;20.00;73.60;;;;;;4948412;28;20066;-65
2022/08/16 07:08:41;;;;;;;3.15;2.65;;;20.10;73.50;;;;;;4941654;28;20039;-64
2022/08/16 07:11:07;;;;;;;2.72;2.53;;;20.20;73.30;;;;;;4919849;28;20600;-63
2022/08/16 07:13:34;;;;;;;2.67;2.45;;;20.20;73.00;;;;;;4943829;28;20466;-64
2022/08/16 07:16:00;;;;;;;2.72;2.45;;;20.30;72.80;;;;;;4946184;28;20043;-64
2022/08/16 07:18:26;;;;;;;4.07;2.25;;;20.40;72.60;;;;;;4944775;28;20093;-63
2022/08/16 07:20:52;;;;;;;4.63;2.80;;;20.50;72.40;;;;;;4940922;28;20047;-64
2022/08/16 07:23:19;;;;;;;3.30;2.60;;;20.50;72.10;;;;;;4947027;28;20036;-64
2022/08/16 07:25:45;;;;;;;4.82;2.33;;;20.60;72.00;;;;;;4942838;28;20038;-65
2022/08/16 07:28:14;;;;;;;3.30;2.50;;;20.70;71.90;;;;;;4942392;28;20042;-64
2022/08/16 07:30:41;;;;;;;2.85;2.63;;;20.80;71.70;;;;;;4942162;28;20039;-64
2022/08/16 07:33:08;;;;;;;6.60;2.90;;;20.90;71.60;;;;;;4945151;28;20054;-64
2022/08/16 07:35:34;;;;;;;3.42;2.13;;;20.90;71.20;;;;;;4941399;28;20051;-64
2022/08/16 07:38:00;;;;;;;2.22;2.13;;;21.00;71.10;;;;;;4937871;28;20043;-64
2022/08/16 07:40:26;;;;;;;3.53;2.30;;;21.10;70.80;;;;;;4946484;28;20419;-65
2022/08/16 07:42:52;;;;;;;2.45;2.25;;;21.20;70.40;;;;;;4942384;28;20058;-64
2022/08/16 07:45:18;;;;;;;2.10;2.00;;;21.30;69.90;;;;;;4941353;28;20046;-63
2022/08/16 07:47:44;;;;;;;3.47;2.20;;;21.30;69.60;;;;;;4947233;28;20038;-63
2022/08/16 07:50:12;;;;;;;5.90;2.10;;;21.50;69.40;;;;;;4946976;28;20089;-64
2022/08/16 07:52:38;;;;;;;4.07;2.30;;;21.60;69.00;;;;;;4942747;28;20453;-63
2022/08/16 07:55:05;;;;;;;3.35;2.08;;;21.70;68.40;;;;;;4944397;28;20041;-64
2022/08/16 07:57:30;;;;;;;2.90;2.05;;;21.80;68.00;;;;;;4939697;28;20526;-65
2022/08/16 07:59:56;;;;;;;3.88;2.40;;;21.80;67.90;;;;;;4948021;28;20098;-64
2022/08/16 08:02:21;;;;;;;3.55;2.35;;;21.90;68.00;;;;;;4943471;28;20061;-66
2022/08/16 08:04:48;;;;;;;2.67;2.35;;;22.10;67.60;;;;;;4948973;28;20031;-65
2022/08/16 08:07:13;;;;;;;4.30;2.40;;;22.10;67.10;;;;;;4944031;28;20101;-63
2022/08/16 08:09:39;;;;;;;3.85;2.05;;;22.20;66.90;;;;;;4948385;28;20063;-60
2022/08/16 08:12:05;;;;;;;3.63;2.30;;;22.30;66.70;;;;;;4942754;28;20306;-64
2022/08/16 08:14:32;;;;;;;2.35;1.88;;;22.40;66.50;;;;;;4944317;28;20452;-65
2022/08/16 08:16:58;;;;;;;2.60;2.35;;;22.40;66.60;;;;;;4944967;28;20042;-65
2022/08/16 08:19:25;;;;;;;3.30;2.60;;;22.50;66.00;;;;;;4950036;28;20046;-64
2022/08/16 08:21:52;;;;;;;2.95;2.42;;;22.60;65.60;;;;;;4953299;28;20035;-65
2022/08/16 08:24:18;;;;;;;2.83;2.17;;;22.70;65.20;;;;;;4952548;28;20109;-64
2022/08/16 08:26:43;;;;;;;3.05;2.22;;;22.80;65.20;;;;;;4950006;28;20068;-63
2022/08/16 08:29:09;;;;;;;2.88;2.17;;;22.90;64.80;;;;;;4950170;28;20055;-65
2022/08/16 08:31:35;;;;;;;2.85;2.28;;;23.00;64.20;;;;;;4947618;28;20388;-64
2022/08/16 08:34:06;;;;;;;5.32;2.45;;;23.10;64.10;;;;;;4946821;28;20039;-64
2022/08/16 08:36:33;;;;;;;2.55;2.30;;;23.20;63.70;;;;;;4948011;28;20088;-64
2022/08/16 08:38:59;;;;;;;2.65;2.20;;;23.20;63.30;;;;;;4951412;28;20035;-65
2022/08/16 08:41:27;;;;;;;4.05;2.30;;;23.30;63.30;;;;;;4947849;28;20039;-65
2022/08/16 08:43:54;;;;;;;3.00;2.28;;;23.40;63.40;;;;;;4921810;28;20027;-65
2022/08/16 08:46:20;;;;;;;2.50;2.25;;;23.50;62.60;;;;;;4949007;28;20031;-63
2022/08/16 08:48:47;;;;;;;4.03;2.30;;;23.60;62.20;;;;;;4944845;28;20057;-65
2022/08/16 08:51:12;;;;;;;3.00;2.42;;;23.70;62.10;;;;;;4954173;28;20036;-65
2022/08/16 08:53:39;;;;;;;2.88;2.47;;;23.80;62.00;;;;;;4954960;28;20042;-66
2022/08/16 08:56:06;;;;;;;5.07;2.30;;;23.90;61.90;;;;;;4957363;28;20061;-65
2022/08/16 08:58:33;;;;;;;6.78;2.55;;;23.90;61.10;;;;;;4954574;28;20043;-65
2022/08/16 09:00:58;;;;;;;3.00;2.60;;;24.10;60.50;;;;;;4956187;28;20039;-63
2022/08/16 09:03:24;;;;;;;4.20;2.67;;;24.10;60.30;;;;;;4954555;28;20037;-65
2022/08/16 09:05:50;;;;;;;2.80;2.60;;;24.20;60.10;;;;;;4954656;28;20122;-64
2022/08/16 09:08:16;;;;;;;3.92;2.58;;;24.30;59.30;;;;;;4955305;28;20046;-65
2022/08/16 09:10:42;;;;;;;12.77;3.22;;;24.30;59.00;;;;;;4949339;28;20027;-66
2022/08/16 09:13:08;;;;;;;3.45;2.40;;;24.40;58.90;;;;;;4957870;28;20444;-64
2022/08/16 09:15:34;;;;;;;2.88;2.42;;;24.40;58.70;;;;;;4954801;28;20182;-65
2022/08/16 09:18:01;;;;;;;3.85;2.88;;;24.50;58.40;;;;;;4957727;28;20096;-65
2022/08/16 09:20:28;;;;;;;2.63;2.42;;;24.50;58.10;;;;;;4954020;28;20047;-65
2022/08/16 09:22:54;;;;;;;5.85;2.88;;;24.60;58.70;;;;;;4956234;28;20126;-65
2022/08/16 09:25:20;;;;;;;2.92;2.58;;;24.70;57.90;;;;;;4955525;28;20170;-65
2022/08/16 09:27:45;;;;;;;3.45;3.08;;;24.70;57.70;;;;;;4952399;28;20054;-64
2022/08/16 09:30:11;;;;;;;3.22;2.58;;;24.80;57.60;;;;;;4954440;28;20281;-64
2022/08/16 09:32:37;;;;;;;3.40;2.30;;;24.80;57.60;;;;;;4953171;28;20213;-64
2022/08/16 09:35:03;;;;;;;5.70;2.50;;;24.90;57.20;;;;;;4953513;28;20043;-61
2022/08/16 09:37:31;;;;;;;4.25;3.20;;;24.90;57.30;;;;;;4956424;28;20040;-64
2022/08/16 09:39:58;;;;;;;4.47;2.53;;;24.90;57.30;;;;;;4953217;28;20070;-64
2022/08/16 09:42:24;;;;;;;6.57;2.60;;;25.00;57.20;;;;;;4956634;28;20054;-64
2022/08/16 09:44:50;;;;;;;3.17;2.38;;;25.10;57.10;;;;;;4953215;28;20098;-64
2022/08/16 09:47:16;;;;;;;4.78;2.50;;;25.20;56.80;;;;;;4954177;28;20039;-65
2022/08/16 09:49:42;;;;;;;2.80;2.50;;;25.30;55.90;;;;;;4954892;28;20384;-65
2022/08/16 09:52:09;;;;;;;3.72;2.45;;;25.30;56.00;;;;;;4956496;28;20043;-65
2022/08/16 09:54:35;;;;;;;2.65;2.45;;;25.40;56.00;;;;;;4953819;28;20031;-65
2022/08/16 09:57:01;;;;;;;4.30;2.70;;;25.40;55.90;;;;;;4954265;28;20122;-65
2022/08/16 09:59:27;;;;;;;3.40;2.60;;;25.50;55.50;;;;;;4955507;28;20122;-65
2022/08/16 10:01:52;;;;;;;3.42;2.30;;;25.50;55.70;;;;;;4952650;28;20402;-65
2022/08/16 10:04:19;;;;;;;3.13;2.22;;;25.60;55.30;;;;;;4953613;28;20108;-65
2022/08/16 10:06:44;;;;;;;3.42;2.47;;;25.70;55.20;;;;;;4953934;28;20158;-65
2022/08/16 10:09:12;;;;;;;3.58;2.40;;;25.70;54.80;;;;;;4953237;28;20058;-65
2022/08/16 10:14:25;;;;;;;5.03;2.30;;;25.80;54.90;;;;;;4955542;28;20126;-65
2022/08/16 10:16:52;;;;;;;3.92;2.45;;;25.90;54.70;;;;;;4957717;28;20031;-65
2022/08/16 10:19:17;;;;;;;3.35;2.53;;;25.80;54.40;;;;;;4956234;28;20040;-64
2022/08/16 10:21:43;;;;;;;5.22;2.40;;;25.90;54.20;;;;;;4956276;28;20041;-64
2022/08/16 10:24:09;;;;;;;2.50;2.30;;;25.90;54.90;;;;;;4957816;28;20058;-64
2022/08/16 10:26:35;;;;;;;2.55;2.35;;;25.90;54.10;;;;;;4953670;28;20122;-65
2022/08/16 10:29:04;;;;;;;3.55;2.60;;;26.00;54.30;;;;;;4947652;28;20036;-64
2022/08/16 10:31:30;;;;;;;10.15;2.63;;;26.00;54.00;;;;;;4950817;28;20419;-65
2022/08/16 10:33:55;;;;;;;5.82;2.80;;;26.00;53.80;;;;;;4943155;28;20043;-65
2022/08/16 10:36:21;;;;;;;3.47;2.47;;;26.10;53.70;;;;;;4947010;28;20549;-64
2022/08/16 10:38:46;;;;;;;2.80;2.60;;;26.10;54.10;;;;;;4944746;28;20039;-64
2022/08/16 10:41:12;;;;;;;4.88;2.45;;;26.20;53.50;;;;;;4948746;28;20400;-64
2022/08/16 10:43:40;;;;;;;3.22;2.45;;;26.20;53.40;;;;;;4948335;28;20039;-64
2022/08/16 10:46:10;;;;;;;5.07;2.50;;;26.20;53.50;;;;;;4943269;28;20511;-66
2022/08/16 10:48:36;;;;;;;2.40;2.20;;;26.30;53.10;;;;;;4949367;28;20593;-65
2022/08/16 10:51:03;;;;;;;6.28;2.50;;;26.30;53.50;;;;;;4946020;28;20050;-65
2022/08/16 10:53:30;;;;;;;2.63;2.17;;;26.30;53.10;;;;;;4947334;28;20043;-64
2022/08/16 10:55:58;;;;;;;3.97;2.30;;;26.40;52.70;;;;;;4948177;28;20280;-65
2022/08/16 10:58:25;;;;;;;3.47;2.38;;;26.40;52.90;;;;;;4946080;28;20049;-65
2022/08/16 11:00:52;;;;;;;4.45;2.20;;;26.50;52.80;;;;;;4948873;28;20036;-65
2022/08/16 11:03:18;;;;;;;2.33;2.13;;;26.50;52.50;;;;;;4949488;28;20533;-66
2022/08/16 11:05:44;;;;;;;5.30;2.40;;;26.50;52.30;;;;;;4948076;28;20043;-65
2022/08/16 11:08:13;;;;;;;2.88;2.10;;;26.70;52.40;;;;;;4950783;28;20404;-64
2022/08/16 11:10:42;;;;;;;2.42;2.13;;;26.70;52.40;;;;;;4946468;28;20133;-65
2022/08/16 11:13:10;;;;;;;2.28;2.10;;;26.80;51.20;;;;;;4949772;28;20036;-64
2022/08/16 11:15:36;;;;;;;6.57;2.10;;;26.90;51.00;;;;;;4951866;28;22876;-65
2022/08/16 11:18:03;;;;;;;2.10;1.90;;;27.00;50.40;;;;;;4946808;28;20473;-65
2022/08/16 11:20:29;;;;;;;3.03;2.13;;;27.00;50.30;;;;;;4948181;28;20046;-67
2022/08/16 11:22:55;;;;;;;2.35;2.10;;;27.00;50.20;;;;;;4948875;28;20041;-64
2022/08/16 11:25:24;;;;;;;2.30;2.10;;;27.00;50.40;;;;;;4949847;28;20031;-64
2022/08/16 11:27:50;;;;;;;4.15;2.25;;;27.00;50.00;;;;;;4948259;28;20149;-64
2022/08/16 11:30:17;;;;;;;4.38;2.17;;;27.10;50.10;;;;;;4950964;28;20039;-64
2022/08/16 11:32:43;;;;;;;3.60;2.13;;;27.20;49.80;;;;;;4946208;28;20039;-65
2022/08/16 11:35:18;;;;;;;3.90;1.85;;;27.20;50.20;;;;;;4949300;28;20512;-64
2022/08/16 11:37:56;;;;;;;1.98;1.80;;;27.30;49.50;;;;;;4949040;28;20471;-65
2022/08/16 11:40:24;;;;;;;2.72;1.83;;;27.30;49.10;;;;;;4948529;28;20039;-64
2022/08/16 11:42:50;;;;;;;2.55;1.75;;;27.40;49.10;;;;;;4950718;28;20495;-64
2022/08/16 11:45:17;;;;;;;4.35;1.90;;;27.50;49.60;;;;;;4950763;28;20090;-64
2022/08/16 11:47:43;;;;;;;2.75;2.00;;;27.50;49.60;;;;;;4948038;28;20034;-63
2022/08/16 11:50:09;;;;;;;1.90;1.75;;;27.60;48.80;;;;;;4948503;28;20035;-63
2022/08/16 11:52:36;;;;;;;3.17;1.75;;;27.60;48.20;;;;;;4949994;28;20123;-65
2022/08/16 11:55:05;;;;;;;3.60;1.80;;;27.70;47.60;;;;;;4946965;28;20050;-65
2022/08/16 11:57:32;;;;;;;3.08;1.75;;;27.80;47.50;;;;;;4948658;28;20039;-65
2022/08/16 11:59:59;;;;;;;1.80;1.70;;;27.80;47.80;;;;;;4951102;28;20167;-65
2022/08/16 12:02:25;;;;;;;2.38;1.90;;;27.80;47.00;;;;;;4950340;28;20049;-66
2022/08/16 12:04:50;;;;;;;2.58;1.88;;;27.80;47.30;;;;;;4948381;28;20039;-63
2022/08/16 12:07:16;;;;;;;3.72;2.00;;;27.80;47.90;;;;;;4951250;28;20035;-63
2022/08/16 12:09:42;;;;;;;5.30;2.03;;;27.80;47.60;;;;;;4950955;28;20045;-64
2022/08/16 12:12:08;;;;;;;2.63;1.80;;;27.80;47.50;;;;;;4948308;28;20043;-63
2022/08/16 12:14:34;;;;;;;2.80;1.65;;;27.90;47.60;;;;;;4949738;28;20092;-63
2022/08/16 12:17:01;;;;;;;1.80;1.70;;;27.90;47.30;;;;;;4947080;28;20039;-63
2022/08/16 12:19:28;;;;;;;3.08;1.77;;;27.90;46.90;;;;;;4951618;28;20031;-63
2022/08/16 12:21:53;;;;;;;3.30;1.65;;;27.90;47.20;;;;;;4953257;28;20075;-65
2022/08/16 12:24:19;;;;;;;4.22;1.80;;;28.00;46.80;;;;;;4951837;28;20353;-63
2022/08/16 12:26:45;;;;;;;2.08;1.55;;;28.00;46.50;;;;;;4944269;28;20047;-64
2022/08/16 12:29:11;;;;;;;4.40;1.80;;;28.00;45.80;;;;;;4951103;28;20585;-63
2022/08/16 12:31:37;;;;;;;1.80;1.70;;;28.10;46.00;;;;;;4946088;28;20043;-63
2022/08/16 12:34:06;;;;;;;4.78;1.83;;;28.10;45.90;;;;;;4950031;28;20149;-64
2022/08/16 12:36:33;;;;;;;4.05;1.80;;;28.20;46.10;;;;;;4951355;28;20031;-63
2022/08/16 12:39:00;;;;;;;2.00;1.90;;;28.20;45.70;;;;;;4952108;28;20047;-63
2022/08/16 12:41:26;;;;;;;6.38;1.67;;;28.30;45.80;;;;;;4950273;28;20637;-63
2022/08/16 12:43:52;;;;;;;2.35;1.77;;;28.40;45.70;;;;;;4954886;28;20500;-62
2022/08/16 12:46:18;;;;;;;2.10;1.90;;;28.50;45.60;;;;;;4960013;28;20444;-63